createdAt,value
2022-09-11T00:00:21.506Z,586.3
2022-09-11T00:01:23.973Z,586
2022-09-11T00:02:26.832Z,585.8
2022-09-11T00:03:29.346Z,586.1
2022-09-11T00:04:31.820Z,586.2
2022-09-11T00:05:34.343Z,585.9
2022-09-11T00:06:36.817Z,586
2022-09-11T00:07:39.321Z,586.2
2022-09-11T00:08:41.806Z,586
2022-09-11T00:09:44.287Z,586.5
2022-09-11T00:10:46.816Z,586.4
2022-09-11T00:11:50.024Z,586.8
2022-09-11T00:12:52.241Z,586.8
2022-09-11T00:13:54.733Z,587
2022-09-11T00:14:57.203Z,587
2022-09-11T00:15:59.648Z,586.7
2022-09-11T00:17:01.607Z,587
2022-09-11T00:18:04.108Z,586.9
2022-09-11T00:19:06.636Z,587
2022-09-11T00:20:08.835Z,587
2022-09-11T00:21:11.048Z,587
2022-09-11T00:22:13.530Z,587
2022-09-11T00:23:15.737Z,587.2
2022-09-11T00:24:18.234Z,586.8
2022-09-11T00:25:20.715Z,587.1
2022-09-11T00:26:23.218Z,587.3
2022-09-11T00:27:25.694Z,587.2
2022-09-11T00:28:28.172Z,587.5
2022-09-11T00:29:30.642Z,587.2
2022-09-11T00:30:33.117Z,587.5
2022-09-11T00:31:35.943Z,587.6
2022-09-11T00:32:38.190Z,588.2
2022-09-11T00:33:40.927Z,587.8
2022-09-11T00:34:43.174Z,587.3
2022-09-11T00:35:45.429Z,587.8
2022-09-11T00:36:47.612Z,587.7
2022-09-11T00:37:50.077Z,587.6
2022-09-11T00:38:52.271Z,587.4
2022-09-11T00:39:55.093Z,587.4
2022-09-11T00:40:57.318Z,587.5
2022-09-11T00:41:59.826Z,587.3
2022-09-11T00:43:02.298Z,587.2
2022-09-11T00:44:04.786Z,587.6
2022-09-11T00:45:06.986Z,587.3
2022-09-11T00:46:09.755Z,587.4
2022-09-11T00:47:12.272Z,587.7
2022-09-11T00:48:14.792Z,587.6
2022-09-11T00:49:17.337Z,588.3
2022-09-11T00:50:21.197Z,587.9
2022-09-11T00:51:23.376Z,587.7
2022-09-11T00:52:25.302Z,588.1
2022-09-11T00:53:27.781Z,588.1
2022-09-11T00:54:30.291Z,587.9
2022-09-11T00:55:32.768Z,588.5
2022-09-11T00:56:34.961Z,588.1
2022-09-11T00:57:37.188Z,587.9
2022-09-11T00:58:39.681Z,588.2
2022-09-11T00:59:41.877Z,588.2
2022-09-11T01:00:44.516Z,588.6
2022-09-11T01:01:47.256Z,587.8
2022-09-11T01:02:49.797Z,588.4
2022-09-11T01:03:52.266Z,588.4
2022-09-11T01:04:54.764Z,588
2022-09-11T01:05:57.246Z,587.9
2022-09-11T01:06:59.450Z,588.3
2022-09-11T01:08:01.926Z,588.3
2022-09-11T01:09:04.124Z,588.5
2022-09-11T01:10:06.633Z,588.6
2022-09-11T01:11:09.102Z,588.4
2022-09-11T01:12:11.580Z,588.5
2022-09-11T01:13:13.798Z,587.8
2022-09-11T01:14:16.274Z,588.8
2022-09-11T01:15:18.479Z,588.6
2022-09-11T01:16:20.960Z,588.3
2022-09-11T01:17:23.159Z,588.5
2022-09-11T01:18:25.654Z,588.7
2022-09-11T01:19:28.134Z,588.9
2022-09-11T01:20:30.355Z,588.9
2022-09-11T01:22:37.831Z,588.6
2022-09-11T01:23:40.519Z,589
2022-09-11T01:24:42.465Z,588.7
2022-09-11T01:25:44.666Z,589.1
2022-09-11T01:26:47.140Z,589.1
2022-09-11T01:27:49.612Z,589.2
2022-09-11T01:28:51.877Z,589
2022-09-11T01:29:53.774Z,589.4
2022-09-11T01:30:55.968Z,589
2022-09-11T01:31:57.886Z,589.3
2022-09-11T01:33:00.062Z,589.5
2022-09-11T01:34:02.288Z,589.2
2022-09-11T01:35:04.795Z,589.3
2022-09-11T01:36:07.289Z,589.4
2022-09-11T01:37:09.515Z,589.2
2022-09-11T01:38:11.416Z,588.7
2022-09-11T01:39:13.912Z,588.6
2022-09-11T01:40:16.228Z,588.9
2022-09-11T01:41:18.740Z,588.8
2022-09-11T01:42:20.940Z,589.5
2022-09-11T01:43:23.122Z,589.1
2022-09-11T01:44:25.625Z,589
2022-09-11T01:45:28.037Z,588.7
2022-09-11T01:46:30.577Z,588.7
2022-09-11T01:47:32.482Z,588.8
2022-09-11T01:48:34.952Z,589.1
2022-09-11T01:49:37.433Z,589.7
2022-09-11T01:50:39.917Z,589.2
2022-09-11T01:51:42.424Z,588.9
2022-09-11T01:52:44.944Z,589.1
2022-09-11T01:54:52.413Z,588.9
2022-09-11T01:55:54.884Z,589.2
2022-09-11T01:56:57.106Z,588.9
2022-09-11T01:57:59.304Z,589.4
2022-09-11T01:59:01.510Z,588.8
2022-09-11T02:00:03.706Z,589.6
2022-09-11T02:01:05.345Z,589.2
2022-09-11T02:02:07.492Z,589.5
2022-09-11T02:03:09.980Z,589.3
2022-09-11T02:04:11.607Z,589.1
2022-09-11T02:05:13.831Z,589.3
2022-09-11T02:06:16.025Z,589.3
2022-09-11T02:07:18.276Z,589.2
2022-09-11T02:08:20.764Z,589
2022-09-11T02:09:23.265Z,589.3
2022-09-11T02:10:25.460Z,589.4
2022-09-11T02:11:27.941Z,589.2
2022-09-11T02:12:30.432Z,589.5
2022-09-11T02:13:32.904Z,589.9
2022-09-11T02:14:35.097Z,589.2
2022-09-11T02:15:37.602Z,589.4
2022-09-11T02:16:40.306Z,589.8
2022-09-11T02:17:42.517Z,590.1
2022-09-11T02:18:45.007Z,589.7
2022-09-11T02:19:47.542Z,589.7
2022-09-11T02:20:50.029Z,590.2
2022-09-11T02:21:52.252Z,589.8
2022-09-11T02:22:54.748Z,589.8
2022-09-11T02:23:57.234Z,589.9
2022-09-11T02:24:59.906Z,590.2
2022-09-11T02:26:02.386Z,590.1
2022-09-11T02:27:04.582Z,590.2
2022-09-11T02:28:06.803Z,590.4
2022-09-11T02:29:09.000Z,589.7
2022-09-11T02:30:11.483Z,590.1
2022-09-11T02:31:14.041Z,589.8
2022-09-11T02:32:16.281Z,589.9
2022-09-11T02:33:18.469Z,590.3
2022-09-11T02:34:20.946Z,590
2022-09-11T02:35:23.428Z,590.2
2022-09-11T02:36:25.624Z,590.4
2022-09-11T02:37:27.798Z,589.8
2022-09-11T02:38:30.303Z,589.8
2022-09-11T02:39:32.782Z,589.7
2022-09-11T02:40:34.978Z,589.5
2022-09-11T02:41:36.899Z,589.8
2022-09-11T02:42:39.108Z,590.2
2022-09-11T02:43:41.822Z,590.3
2022-09-11T02:44:44.367Z,590
2022-09-11T02:45:46.539Z,589.8
2022-09-11T02:46:49.069Z,589.9
2022-09-11T02:47:51.537Z,589.8
2022-09-11T02:48:53.453Z,589.7
2022-09-11T02:49:55.652Z,590.6
2022-09-11T02:50:57.847Z,590.9
2022-09-11T02:52:00.038Z,590.4
2022-09-11T02:53:02.211Z,590.7
2022-09-11T02:54:03.873Z,590.6
2022-09-11T02:55:06.363Z,590.4
2022-09-11T02:56:08.845Z,590.8
2022-09-11T02:57:11.021Z,590.9
2022-09-11T02:58:13.489Z,591.1
2022-09-11T02:59:15.716Z,591.2
2022-09-11T03:00:17.627Z,591
2022-09-11T03:01:20.098Z,591.7
2022-09-11T03:02:22.573Z,591.4
2022-09-11T03:03:25.062Z,590.9
2022-09-11T03:04:27.260Z,591.3
2022-09-11T03:05:29.750Z,591.1
2022-09-11T03:06:32.220Z,590.8
2022-09-11T03:07:34.713Z,590.8
2022-09-11T03:08:36.919Z,590.2
2022-09-11T03:09:39.408Z,590.6
2022-09-11T03:10:41.910Z,590.4
2022-09-11T03:11:45.042Z,590.3
2022-09-11T03:12:47.862Z,590.8
2022-09-11T03:13:50.360Z,590.7
2022-09-11T03:14:52.554Z,591.2
2022-09-11T03:15:55.198Z,591.2
2022-09-11T03:16:57.678Z,590.7
2022-09-11T03:17:59.904Z,590.7
2022-09-11T03:19:02.379Z,590.6
2022-09-11T03:20:04.870Z,591
2022-09-11T03:21:07.337Z,591
2022-09-11T03:22:09.810Z,590.7
2022-09-11T03:23:12.021Z,590.7
2022-09-11T03:24:14.220Z,590.7
2022-09-11T03:25:16.455Z,591
2022-09-11T03:26:18.662Z,591
2022-09-11T03:27:21.139Z,590.7
2022-09-11T03:28:23.332Z,590.9
2022-09-11T03:29:25.802Z,590.9
2022-09-11T03:30:27.993Z,590.4
2022-09-11T03:31:30.442Z,590.8
2022-09-11T03:32:33.007Z,591
2022-09-11T03:33:35.369Z,590.6
2022-09-11T03:34:37.832Z,590.6
2022-09-11T03:35:39.474Z,590.8
2022-09-11T03:36:41.677Z,591.1
2022-09-11T03:37:44.151Z,590.5
2022-09-11T03:38:46.640Z,590.7
2022-09-11T03:39:49.110Z,590.6
2022-09-11T03:40:51.350Z,590.6
2022-09-11T03:41:53.565Z,590.8
2022-09-11T03:42:56.039Z,590.9
2022-09-11T03:43:58.241Z,591
2022-09-11T03:45:00.178Z,590.9
2022-09-11T03:46:02.752Z,590.7
2022-09-11T03:47:04.691Z,591
2022-09-11T03:48:07.161Z,591.4
2022-09-11T03:49:09.659Z,590.7
2022-09-11T03:50:12.133Z,591
2022-09-11T03:51:14.331Z,591.1
2022-09-11T03:52:16.525Z,592
2022-09-11T03:53:19.002Z,591.2
2022-09-11T03:54:21.487Z,591.3
2022-09-11T03:55:23.957Z,590.8
2022-09-11T03:56:26.177Z,591.9
2022-09-11T03:57:28.665Z,591.5
2022-09-11T03:58:31.128Z,591.4
2022-09-11T03:59:33.329Z,591.5
2022-09-11T04:00:35.515Z,591.2
2022-09-11T04:01:37.824Z,591.4
2022-09-11T04:02:39.812Z,591.3
2022-09-11T04:03:43.085Z,591
2022-09-11T04:04:45.678Z,590.9
2022-09-11T04:05:48.154Z,591.3
2022-09-11T04:06:50.624Z,591.2
2022-09-11T04:07:52.799Z,591.3
2022-09-11T04:08:55.280Z,590.9
2022-09-11T04:09:57.772Z,590.7
2022-09-11T04:10:59.695Z,591.3
2022-09-11T04:12:02.195Z,591.6
2022-09-11T04:13:04.408Z,591.3
2022-09-11T04:14:06.600Z,591.2
2022-09-11T04:15:09.062Z,591.2
2022-09-11T04:16:11.466Z,591.4
2022-09-11T04:17:13.695Z,591.4
2022-09-11T04:18:15.888Z,591.4
2022-09-11T04:19:18.087Z,591.6
2022-09-11T04:20:20.589Z,591
2022-09-11T04:21:23.060Z,591.5
2022-09-11T04:22:25.275Z,591
2022-09-11T04:23:27.749Z,591.4
2022-09-11T04:24:30.221Z,591.5
2022-09-11T04:25:32.424Z,591.7
2022-09-11T04:26:34.347Z,591.5
2022-09-11T04:27:36.289Z,591.5
2022-09-11T04:28:38.228Z,591
2022-09-11T04:29:40.693Z,591.8
2022-09-11T04:30:43.167Z,591.2
2022-09-11T04:31:45.663Z,591.5
2022-09-11T04:32:47.924Z,591.1
2022-09-11T04:33:50.403Z,591
2022-09-11T04:34:52.863Z,590.8
2022-09-11T04:35:55.357Z,590.5
2022-09-11T04:36:57.269Z,591.1
2022-09-11T04:37:59.742Z,591.5
2022-09-11T04:39:01.386Z,591
2022-09-11T04:40:04.263Z,590.9
2022-09-11T04:41:06.798Z,591.3
2022-09-11T04:42:09.268Z,591.2
2022-09-11T04:43:11.765Z,590.9
2022-09-11T04:44:13.703Z,591.1
2022-09-11T04:45:16.181Z,591.2
2022-09-11T04:46:18.653Z,590.9
2022-09-11T04:47:20.835Z,591.1
2022-09-11T04:48:23.328Z,591
2022-09-11T04:49:25.790Z,590.3
2022-09-11T04:50:28.270Z,590.2
2022-09-11T04:51:31.262Z,590.5
2022-09-11T04:52:33.746Z,590.5
2022-09-11T04:53:36.207Z,590.1
2022-09-11T04:54:38.406Z,590.5
2022-09-11T04:55:40.882Z,590.1
2022-09-11T04:56:43.098Z,590.1
2022-09-11T04:57:45.566Z,590.4
2022-09-11T04:58:48.066Z,590.2
2022-09-11T04:59:50.271Z,589.7
2022-09-11T05:00:53.069Z,590.2
2022-09-11T05:01:55.814Z,590
2022-09-11T05:02:57.741Z,590.1
2022-09-11T05:03:59.926Z,590.7
2022-09-11T05:05:02.401Z,590.9
2022-09-11T05:06:04.868Z,590.4
2022-09-11T05:07:06.800Z,590.6
2022-09-11T05:08:08.994Z,590.8
2022-09-11T05:09:11.494Z,590.4
2022-09-11T05:10:13.958Z,590.9
2022-09-11T05:11:16.156Z,590.6
2022-09-11T05:12:18.665Z,591.2
2022-09-11T05:13:21.193Z,590.6
2022-09-11T05:14:23.412Z,590.2
2022-09-11T05:15:25.913Z,590.1
2022-09-11T05:16:28.662Z,590.2
2022-09-11T05:17:31.172Z,590.1
2022-09-11T05:18:33.368Z,590
2022-09-11T05:19:35.863Z,589.7
2022-09-11T05:20:38.343Z,589.4
2022-09-11T05:21:40.816Z,589.7
2022-09-11T05:22:43.322Z,589.2
2022-09-11T05:23:46.075Z,589.7
2022-09-11T05:24:48.557Z,589.3
2022-09-11T05:25:50.702Z,589.2
2022-09-11T05:26:52.948Z,589.3
2022-09-11T05:27:55.447Z,589.6
2022-09-11T05:28:57.647Z,589.1
2022-09-11T05:29:59.865Z,589.7
2022-09-11T05:31:02.364Z,589.5
2022-09-11T05:32:04.834Z,589.3
2022-09-11T05:33:07.035Z,589
2022-09-11T05:34:08.937Z,589.4
2022-09-11T05:35:11.435Z,589.4
2022-09-11T05:36:13.918Z,589.3
2022-09-11T05:37:15.833Z,589.2
2022-09-11T05:38:18.063Z,589.4
2022-09-11T05:39:20.004Z,589.4
2022-09-11T05:40:22.206Z,588.8
2022-09-11T05:41:24.124Z,589
2022-09-11T05:42:26.307Z,588.6
2022-09-11T05:43:28.810Z,588.4
2022-09-11T05:44:30.450Z,588.8
2022-09-11T05:45:33.019Z,588.5
2022-09-11T05:46:35.568Z,588.5
2022-09-11T05:47:37.498Z,588.7
2022-09-11T05:48:39.724Z,588.7
2022-09-11T05:49:42.210Z,589.2
2022-09-11T05:50:44.410Z,589
2022-09-11T05:51:46.622Z,589.4
2022-09-11T05:52:49.142Z,588.5
2022-09-11T05:53:51.642Z,588.2
2022-09-11T05:54:54.113Z,588.3
2022-09-11T05:55:56.315Z,588.3
2022-09-11T05:56:58.788Z,588.2
2022-09-11T05:58:01.267Z,588
2022-09-11T05:59:03.495Z,588
2022-09-11T06:00:05.992Z,587.9
2022-09-11T06:01:08.467Z,588.1
2022-09-11T06:02:10.961Z,587.4
2022-09-11T06:04:18.462Z,587
2022-09-11T06:05:20.689Z,586.5
2022-09-11T06:06:23.193Z,586.9
2022-09-11T06:07:25.660Z,586.5
2022-09-11T06:08:27.043Z,587
2022-09-11T06:09:29.526Z,586.8
2022-09-11T06:10:32.006Z,586.4
2022-09-11T06:11:34.208Z,586.6
2022-09-11T06:12:36.421Z,586.2
2022-09-11T06:13:39.070Z,585.9
2022-09-11T06:14:41.639Z,585.8
2022-09-11T06:16:48.869Z,585.8
2022-09-11T06:17:51.095Z,585.5
2022-09-11T06:18:53.288Z,585.4
2022-09-11T06:19:55.467Z,585.2
2022-09-11T06:20:57.938Z,585.4
2022-09-11T06:21:59.891Z,585.2
2022-09-11T06:24:10.455Z,585.5
2022-09-11T06:25:12.946Z,584.9
2022-09-11T06:26:15.411Z,585
2022-09-11T06:27:17.605Z,585.5
2022-09-11T06:28:19.789Z,585.1
2022-09-11T06:29:22.261Z,584.9
2022-09-11T06:30:25.058Z,585
2022-09-11T06:31:27.547Z,584
2022-09-11T06:32:29.752Z,584.8
2022-09-11T06:33:32.228Z,584.8
2022-09-11T06:34:34.165Z,585.3
2022-09-11T06:35:36.631Z,584.9
2022-09-11T06:36:38.856Z,584.4
2022-09-11T06:37:41.069Z,584.1
2022-09-11T06:38:43.564Z,584.7
2022-09-11T06:39:46.294Z,584.4
2022-09-11T06:40:48.278Z,584.1
2022-09-11T06:41:50.483Z,584.4
2022-09-11T06:42:52.963Z,584.3
2022-09-11T06:43:55.442Z,584.6
2022-09-11T06:44:57.075Z,584.6
2022-09-11T06:45:59.685Z,584.7
2022-09-11T06:47:02.177Z,584.5
2022-09-11T06:48:04.606Z,584.5
2022-09-11T06:49:06.919Z,584.4
2022-09-11T06:50:09.183Z,585.1
2022-09-11T06:51:11.695Z,584.5
2022-09-11T06:52:14.174Z,584.3
2022-09-11T06:53:16.691Z,584.3
2022-09-11T06:54:19.169Z,584.2
2022-09-11T06:55:21.670Z,584
2022-09-11T06:56:24.227Z,583.9
2022-09-11T06:57:26.702Z,584
2022-09-11T06:58:29.178Z,584.1
2022-09-11T06:59:31.657Z,583.6
2022-09-11T07:00:33.840Z,583.8
2022-09-11T07:01:36.851Z,583.6
2022-09-11T07:02:39.395Z,584.3
2022-09-11T07:03:41.675Z,583.8
2022-09-11T07:04:44.159Z,583.9
2022-09-11T07:05:46.641Z,583.5
2022-09-11T07:06:48.841Z,584.1
2022-09-11T07:07:50.750Z,584.1
2022-09-11T07:08:53.244Z,583.7
2022-09-11T07:09:55.745Z,583.6
2022-09-11T07:10:57.935Z,583.6
2022-09-11T07:12:00.427Z,583.7
2022-09-11T07:13:02.896Z,583.4
2022-09-11T07:14:05.371Z,582.9
2022-09-11T07:15:07.545Z,583
2022-09-11T07:16:10.430Z,583.3
2022-09-11T07:17:12.717Z,582.9
2022-09-11T07:18:15.242Z,583
2022-09-11T07:19:17.747Z,583.3
2022-09-11T07:20:20.242Z,583
2022-09-11T07:21:22.449Z,583.7
2022-09-11T07:22:24.925Z,582.9
2022-09-11T07:23:27.397Z,582.7
2022-09-11T07:24:29.889Z,582.3
2022-09-11T07:25:32.371Z,582.8
2022-09-11T07:26:34.843Z,582.3
2022-09-11T07:27:37.047Z,582.3
2022-09-11T07:28:39.251Z,582
2022-09-11T07:29:41.740Z,582
2022-09-11T07:30:44.543Z,581.9
2022-09-11T07:31:46.799Z,582
2022-09-11T07:32:49.321Z,581.4
2022-09-11T07:33:51.244Z,582
2022-09-11T07:34:53.472Z,581.8
2022-09-11T07:35:55.980Z,581.4
2022-09-11T07:36:58.504Z,582
2022-09-11T07:38:01.059Z,581.6
2022-09-11T07:39:03.260Z,581
2022-09-11T07:40:06.230Z,581.3
2022-09-11T07:41:08.747Z,581
2022-09-11T07:42:11.242Z,581.1
2022-09-11T07:43:13.789Z,581.5
2022-09-11T07:44:16.265Z,581.3
2022-09-11T07:46:23.194Z,580.9
2022-09-11T07:47:25.661Z,580.9
2022-09-11T07:48:28.156Z,580.8
2022-09-11T07:49:30.358Z,580.4
2022-09-11T07:50:32.873Z,580.3
2022-09-11T07:51:35.359Z,580.7
2022-09-11T07:52:37.835Z,580.5
2022-09-11T07:53:40.388Z,580.4
2022-09-11T07:54:42.595Z,580.4
2022-09-11T07:55:44.520Z,580.4
2022-09-11T07:56:46.988Z,580.5
2022-09-11T07:57:49.192Z,580.4
2022-09-11T07:58:51.163Z,580
2022-09-11T07:59:53.084Z,579.6
2022-09-11T08:00:55.851Z,579.9
2022-09-11T08:01:58.744Z,579.6
2022-09-11T08:03:01.227Z,579.4
2022-09-11T08:04:03.721Z,579.6
2022-09-11T08:05:05.646Z,579.6
2022-09-11T08:06:07.918Z,579.7
2022-09-11T08:07:10.411Z,579.5
2022-09-11T08:08:12.620Z,579.5
2022-09-11T08:09:15.089Z,579.6
2022-09-11T08:11:22.336Z,579.6
2022-09-11T08:12:24.802Z,579.3
2022-09-11T08:13:27.303Z,579.2
2022-09-11T08:14:29.517Z,578.8
2022-09-11T08:15:31.991Z,578.9
2022-09-11T08:16:34.692Z,578.9
2022-09-11T08:17:37.170Z,578.5
2022-09-11T08:18:39.686Z,578.6
2022-09-11T08:19:41.910Z,578.5
2022-09-11T08:20:44.378Z,578.3
2022-09-11T08:21:46.615Z,577.4
2022-09-11T08:22:49.117Z,577.8
2022-09-11T08:23:51.051Z,577.8
2022-09-11T08:24:53.258Z,577.1
2022-09-11T08:25:55.736Z,577.5
2022-09-11T08:26:57.942Z,577.5
2022-09-11T08:28:00.422Z,577.3
2022-09-11T08:29:02.919Z,577.1
2022-09-11T08:30:05.160Z,576.8
2022-09-11T08:31:07.947Z,576.4
2022-09-11T08:32:10.725Z,576.5
2022-09-11T08:33:13.200Z,576.5
2022-09-11T08:34:15.133Z,576.3
2022-09-11T08:35:17.065Z,576.2
2022-09-11T08:36:19.298Z,576.2
2022-09-11T08:37:21.513Z,576.3
2022-09-11T08:38:23.728Z,575.9
2022-09-11T08:39:25.955Z,575.9
2022-09-11T08:40:28.182Z,575.8
2022-09-11T08:41:30.363Z,575.8
2022-09-11T08:42:32.848Z,575.8
2022-09-11T08:43:35.458Z,575.2
2022-09-11T08:45:42.905Z,575.8
2022-09-11T08:46:45.137Z,575.8
2022-09-11T08:47:47.619Z,575.8
2022-09-11T08:48:50.103Z,575.7
2022-09-11T08:49:52.593Z,575.5
2022-09-11T08:50:54.842Z,575.7
2022-09-11T08:51:57.322Z,576.1
2022-09-11T08:52:59.278Z,575.4
2022-09-11T08:54:01.494Z,575.6
2022-09-11T08:55:03.697Z,575.4
2022-09-11T08:56:05.890Z,575
2022-09-11T08:57:07.789Z,574.7
2022-09-11T08:58:10.013Z,575
2022-09-11T08:59:12.194Z,574.6
2022-09-11T09:00:14.661Z,575.2
2022-09-11T09:02:24.296Z,574.7
2022-09-11T09:03:26.796Z,574.5
2022-09-11T09:04:28.718Z,574.6
2022-09-11T09:05:31.187Z,574.4
2022-09-11T09:06:33.680Z,574.4
2022-09-11T09:07:36.153Z,574.5
2022-09-11T09:08:38.381Z,574.3
2022-09-11T09:09:40.867Z,574.4
2022-09-11T09:10:43.061Z,574.6
2022-09-11T09:11:45.256Z,574.4
2022-09-11T09:12:47.731Z,574.6
2022-09-11T09:13:50.231Z,574.7
2022-09-11T09:14:52.826Z,574.2
2022-09-11T09:15:55.288Z,574.6
2022-09-11T09:16:57.504Z,574.4
2022-09-11T09:17:59.994Z,574
2022-09-11T09:19:02.189Z,574.4
2022-09-11T09:20:04.392Z,574.7
2022-09-11T09:21:06.324Z,574.3
2022-09-11T09:22:08.819Z,574.2
2022-09-11T09:23:11.297Z,574.2
2022-09-11T09:24:13.791Z,574.3
2022-09-11T09:25:16.012Z,574.2
2022-09-11T09:26:18.486Z,574.6
2022-09-11T09:27:20.972Z,574.2
2022-09-11T09:28:23.452Z,573.9
2022-09-11T09:29:25.674Z,573.9
2022-09-11T09:30:28.164Z,574.1
2022-09-11T09:31:30.373Z,574.2
2022-09-11T09:32:32.360Z,574.3
2022-09-11T09:33:34.795Z,574.3
2022-09-11T09:34:36.709Z,573.7
2022-09-11T09:35:38.619Z,574.2
2022-09-11T09:36:41.090Z,574.1
2022-09-11T09:37:43.580Z,574.3
2022-09-11T09:38:46.057Z,574.3
2022-09-11T09:39:48.536Z,574.1
2022-09-11T09:40:51.040Z,574.4
2022-09-11T09:41:53.518Z,573.9
2022-09-11T09:42:55.707Z,574.3
2022-09-11T09:43:58.205Z,574.2
2022-09-11T09:45:00.707Z,573.8
2022-09-11T09:46:03.211Z,574
2022-09-11T09:47:05.725Z,573.8
2022-09-11T09:48:08.230Z,573.6
2022-09-11T09:49:10.695Z,574
2022-09-11T09:50:12.327Z,573.5
2022-09-11T09:51:14.527Z,573.4
2022-09-11T09:52:16.758Z,574
2022-09-11T09:53:18.993Z,573.7
2022-09-11T09:54:21.230Z,573.7
2022-09-11T09:55:23.460Z,573.4
2022-09-11T09:56:25.953Z,573.9
2022-09-11T09:57:28.156Z,573.7
2022-09-11T09:58:30.642Z,574
2022-09-11T09:59:32.567Z,573.4
2022-09-11T10:00:34.768Z,573.3
2022-09-11T10:01:37.306Z,573.1
2022-09-11T10:02:39.981Z,573.5
2022-09-11T10:03:42.525Z,573.5
2022-09-11T10:04:44.989Z,573.7
2022-09-11T10:05:47.174Z,573.5
2022-09-11T10:06:49.645Z,573.8
2022-09-11T10:07:51.549Z,573.5
2022-09-11T10:08:54.058Z,573.8
2022-09-11T10:09:55.999Z,574.1
2022-09-11T10:10:58.245Z,573.4
2022-09-11T10:12:00.730Z,573.2
2022-09-11T10:15:12.911Z,573.9
2022-09-11T10:16:15.318Z,573.9
2022-09-11T10:17:17.854Z,573.7
2022-09-11T10:18:19.796Z,573.5
2022-09-11T10:19:22.299Z,573.6
2022-09-11T10:20:24.496Z,573.8
2022-09-11T10:21:26.975Z,573.1
2022-09-11T10:22:28.913Z,573.5
2022-09-11T10:23:30.842Z,573.4
2022-09-11T10:24:33.347Z,572.9
2022-09-11T10:25:35.546Z,573.7
2022-09-11T10:26:37.492Z,572.5
2022-09-11T10:27:39.980Z,572.9
2022-09-11T10:28:42.875Z,572.5
2022-09-11T10:29:45.174Z,572.4
2022-09-11T10:30:47.607Z,572.3
2022-09-11T10:31:50.160Z,572.8
2022-09-11T10:32:52.356Z,572.3
2022-09-11T10:33:54.826Z,572.3
2022-09-11T10:34:57.315Z,572.4
2022-09-11T10:35:59.242Z,572.3
2022-09-11T10:37:01.727Z,572.6
2022-09-11T10:38:04.201Z,572.6
2022-09-11T10:39:06.101Z,572.6
2022-09-11T10:40:08.037Z,572.2
2022-09-11T10:41:10.246Z,572.3
2022-09-11T10:42:12.763Z,572.6
2022-09-11T10:43:14.973Z,572.8
2022-09-11T10:44:17.185Z,572.7
2022-09-11T10:45:19.657Z,572.3
2022-09-11T10:46:21.838Z,572.4
2022-09-11T10:47:24.350Z,572.9
2022-09-11T10:48:26.828Z,572.9
2022-09-11T10:49:29.016Z,572.4
2022-09-11T10:50:31.266Z,572.3
2022-09-11T10:51:33.741Z,572.3
2022-09-11T10:52:35.982Z,572.2
2022-09-11T10:53:38.183Z,572.5
2022-09-11T10:54:40.658Z,571.9
2022-09-11T10:55:43.166Z,572
2022-09-11T10:56:45.381Z,571.7
2022-09-11T10:57:47.615Z,572.1
2022-09-11T10:59:55.605Z,572.3
2022-09-11T11:00:58.071Z,572.3
2022-09-11T11:02:00.861Z,572.6
2022-09-11T11:03:03.179Z,572.3
2022-09-11T11:05:13.628Z,571.8
2022-09-11T11:06:16.121Z,572.2
2022-09-11T11:07:18.608Z,571.5
2022-09-11T11:08:21.081Z,572.2
2022-09-11T11:09:29.048Z,572.2
2022-09-11T11:10:32.320Z,571.8
2022-09-11T11:11:34.278Z,571.9
2022-09-11T11:12:36.225Z,571.9
2022-09-11T11:13:38.175Z,572.2
2022-09-11T11:14:40.401Z,572.3
2022-09-11T11:15:43.113Z,571.7
2022-09-11T11:16:45.338Z,572
2022-09-11T11:17:47.810Z,571.6
2022-09-11T11:18:50.033Z,571.8
2022-09-11T11:19:52.236Z,571.2
2022-09-11T11:20:54.724Z,571.4
2022-09-11T11:21:57.235Z,571.4
2022-09-11T11:22:59.536Z,571.2
2022-09-11T11:24:01.514Z,571.2
2022-09-11T11:25:04.004Z,571.1
2022-09-11T11:26:05.942Z,570.8
2022-09-11T11:27:08.464Z,570.7
2022-09-11T11:28:10.940Z,570.9
2022-09-11T11:29:13.173Z,570.6
2022-09-11T11:30:15.659Z,570.9
2022-09-11T11:31:18.435Z,571.5
2022-09-11T11:32:20.923Z,571.4
2022-09-11T11:33:22.579Z,571.6
2022-09-11T11:34:24.789Z,571.4
2022-09-11T11:35:27.274Z,571.6
2022-09-11T11:36:29.752Z,571.2
2022-09-11T11:37:32.248Z,571
2022-09-11T11:38:35.027Z,571.2
2022-09-11T11:39:37.094Z,571.5
2022-09-11T11:40:39.598Z,571.2
2022-09-11T11:41:42.075Z,571.1
2022-09-11T11:42:44.289Z,570.7
2022-09-11T11:43:46.763Z,570.9
2022-09-11T11:44:48.970Z,570.3
2022-09-11T11:45:51.751Z,570.3
2022-09-11T11:46:54.235Z,570
2022-09-11T11:47:56.426Z,569.9
2022-09-11T11:48:58.918Z,569.6
2022-09-11T11:50:01.156Z,569.6
2022-09-11T11:51:03.058Z,569.1
2022-09-11T11:52:05.274Z,569.1
2022-09-11T11:53:07.210Z,568.9
2022-09-11T11:54:09.136Z,568.8
2022-09-11T11:55:11.602Z,569
2022-09-11T11:56:13.533Z,568.7
2022-09-11T11:57:15.737Z,568.6
2022-09-11T11:58:18.240Z,568.4
2022-09-11T11:59:20.273Z,568
2022-09-11T12:00:22.786Z,568
2022-09-11T12:01:25.268Z,568.4
2022-09-11T12:02:27.472Z,568.2
2022-09-11T12:03:30.219Z,568.2
2022-09-11T12:04:32.704Z,568.4
2022-09-11T12:05:34.658Z,568
2022-09-11T12:06:37.134Z,568
2022-09-11T12:07:39.337Z,568
2022-09-11T12:08:41.623Z,568.5
2022-09-11T12:09:43.926Z,568.3
2022-09-11T12:10:46.405Z,568.1
2022-09-11T12:11:48.880Z,568.6
2022-09-11T12:12:50.817Z,568.8
2022-09-11T12:13:53.032Z,569.1
2022-09-11T12:14:55.229Z,568.7
2022-09-11T12:15:58.125Z,568.6
2022-09-11T12:17:00.369Z,568.5
2022-09-11T12:18:02.844Z,568.7
2022-09-11T12:19:05.330Z,568.8
2022-09-11T12:20:07.804Z,568.7
2022-09-11T12:21:10.299Z,568.7
2022-09-11T12:22:12.529Z,568.7
2022-09-11T12:23:14.430Z,568.5
2022-09-11T12:24:16.928Z,568.7
2022-09-11T12:25:18.857Z,568.6
2022-09-11T12:26:21.071Z,568.6
2022-09-11T12:27:22.973Z,569
2022-09-11T12:28:25.181Z,568.8
2022-09-11T12:29:27.407Z,568.8
2022-09-11T12:30:29.624Z,568.6
2022-09-11T12:31:32.038Z,569
2022-09-11T12:32:34.560Z,568.7
2022-09-11T12:33:36.752Z,568.9
2022-09-11T12:34:39.225Z,568.7
2022-09-11T12:35:41.726Z,569.1
2022-09-11T12:36:43.940Z,568.7
2022-09-11T12:37:45.594Z,568.9
2022-09-11T12:38:48.076Z,569
2022-09-11T12:39:50.791Z,569
2022-09-11T12:40:53.316Z,568.7
2022-09-11T12:41:55.788Z,569
2022-09-11T12:42:58.266Z,569.1
2022-09-11T12:44:00.742Z,569.2
2022-09-11T12:45:02.701Z,569
2022-09-11T12:46:05.209Z,569
2022-09-11T12:47:07.198Z,569.3
2022-09-11T12:48:09.688Z,569.7
2022-09-11T12:50:16.859Z,569.4
2022-09-11T12:51:19.061Z,569.1
2022-09-11T12:52:21.554Z,569.8
2022-09-11T12:53:23.769Z,569.6
2022-09-11T12:54:25.967Z,569.9
2022-09-11T12:55:28.450Z,569.8
2022-09-11T12:56:30.946Z,569.9
2022-09-11T12:57:33.425Z,570
2022-09-11T12:58:35.901Z,570.2
2022-09-11T12:59:38.091Z,569.9
2022-09-11T13:00:40.317Z,570.1
2022-09-11T13:01:42.718Z,570.2
2022-09-11T13:02:45.033Z,570.2
2022-09-11T13:03:47.609Z,570
2022-09-11T13:04:49.810Z,570.4
2022-09-11T13:05:51.998Z,570.1
2022-09-11T13:06:54.219Z,569.9
2022-09-11T13:07:56.411Z,569.6
2022-09-11T13:08:58.884Z,570.1
2022-09-11T13:10:00.791Z,569.8
2022-09-11T13:11:02.734Z,570.2
2022-09-11T13:12:04.937Z,570.4
2022-09-11T13:13:06.843Z,570.3
2022-09-11T13:14:09.322Z,570.3
2022-09-11T13:15:11.524Z,570.2
2022-09-11T13:16:13.975Z,570.3
2022-09-11T13:17:16.473Z,570.3
2022-09-11T13:18:18.696Z,570.5
2022-09-11T13:19:20.911Z,570.4
2022-09-11T13:20:23.408Z,570.3
2022-09-11T13:22:30.881Z,570
2022-09-11T13:23:33.380Z,570.1
2022-09-11T13:24:35.854Z,570.2
2022-09-11T13:25:38.321Z,570.5
2022-09-11T13:26:40.830Z,570.8
2022-09-11T13:27:43.296Z,570.7
2022-09-11T13:28:45.508Z,570.7
2022-09-11T13:29:47.980Z,570.9
2022-09-11T13:30:50.702Z,570.9
2022-09-11T13:31:52.959Z,570.6
2022-09-11T13:32:55.174Z,570.6
2022-09-11T13:33:57.403Z,570.4
2022-09-11T13:34:59.627Z,570.7
2022-09-11T13:36:02.110Z,570.8
2022-09-11T13:37:04.310Z,571
2022-09-11T13:38:06.790Z,570.8
2022-09-11T13:39:09.019Z,571
2022-09-11T13:40:12.254Z,571.2
2022-09-11T13:41:14.481Z,571
2022-09-11T13:42:16.968Z,570.9
2022-09-11T13:43:18.914Z,571
2022-09-11T13:44:21.402Z,570.8
2022-09-11T13:45:24.012Z,570.9